createdAt,value
2018-05-21T00:00:07.579Z,1023.61
2018-05-21T00:01:16.441Z,1023.62
2018-05-21T00:02:25.355Z,1023.56
2018-05-21T00:03:34.771Z,1023.55
2018-05-21T00:04:43.635Z,1023.6
2018-05-21T00:05:52.494Z,1023.59
2018-05-21T00:07:01.356Z,1023.57
2018-05-21T00:08:10.542Z,1023.62
2018-05-21T00:09:19.410Z,1023.63
2018-05-21T00:10:28.271Z,1023.65
2018-05-21T00:11:37.405Z,1023.58
2018-05-21T00:12:46.552Z,1023.62
2018-05-21T00:13:55.460Z,1023.63
2018-05-21T00:15:04.321Z,1023.63
2018-05-21T00:16:13.459Z,1023.62
2018-05-21T00:17:22.320Z,1023.65
2018-05-21T00:18:31.180Z,1023.62
2018-05-21T00:19:40.191Z,1023.66
2018-05-21T00:20:49.333Z,1023.65
2018-05-21T00:21:58.747Z,1023.68
2018-05-21T00:23:07.614Z,1023.62
2018-05-21T00:24:16.478Z,1023.64
2018-05-21T00:25:26.041Z,1023.62
2018-05-21T00:26:35.176Z,1023.61
2018-05-21T00:27:44.317Z,1023.59
2018-05-21T00:28:53.459Z,1023.63
2018-05-21T00:30:02.317Z,1023.62
2018-05-21T00:31:11.559Z,1023.61
2018-05-21T00:32:20.420Z,1023.63
2018-05-21T00:33:29.282Z,1023.61
2018-05-21T00:34:38.143Z,1023.63
2018-05-21T00:35:47.561Z,1023.57
2018-05-21T00:36:56.473Z,1023.59
2018-05-21T00:38:05.623Z,1023.57
2018-05-21T00:39:14.766Z,1023.59
2018-05-21T00:40:23.628Z,1023.6
2018-05-21T00:41:32.491Z,1023.58
2018-05-21T00:42:41.779Z,1023.63
2018-05-21T00:43:50.924Z,1023.64
2018-05-21T00:45:00.063Z,1023.67
2018-05-21T00:46:08.927Z,1023.64
2018-05-21T00:47:18.067Z,1023.65
2018-05-21T00:48:27.078Z,1023.62
2018-05-21T00:49:36.217Z,1023.65
2018-05-21T00:50:45.080Z,1023.63
2018-05-21T00:51:53.944Z,1023.65
2018-05-21T00:53:02.803Z,1023.65
2018-05-21T00:54:11.864Z,1023.61
2018-05-21T00:55:20.724Z,1023.6
2018-05-21T00:56:29.588Z,1023.6
2018-05-21T00:57:38.446Z,1023.65
2018-05-21T00:58:47.306Z,1023.68
2018-05-21T00:59:56.796Z,1023.65
2018-05-21T01:01:05.935Z,1023.68
2018-05-21T01:02:14.794Z,1023.62
2018-05-21T01:03:23.654Z,1023.61
2018-05-21T01:04:32.516Z,1023.62
2018-05-21T01:05:41.728Z,1023.58
2018-05-21T01:06:50.592Z,1023.58
2018-05-21T01:07:59.450Z,1023.57
2018-05-21T01:09:08.315Z,1023.6
2018-05-21T01:10:17.447Z,1023.54
2018-05-21T01:11:26.309Z,1023.55
2018-05-21T01:12:35.447Z,1023.5
2018-05-21T01:13:44.640Z,1023.54
2018-05-21T01:14:53.502Z,1023.55
2018-05-21T01:16:02.360Z,1023.55
2018-05-21T01:17:11.319Z,1023.55
2018-05-21T01:18:20.181Z,1023.57
2018-05-21T01:19:29.042Z,1023.54
2018-05-21T01:20:37.903Z,1023.52
2018-05-21T01:21:46.762Z,1023.53
2018-05-21T01:22:55.625Z,1023.55
2018-05-21T01:24:04.487Z,1023.55
2018-05-21T01:25:13.345Z,1023.55
2018-05-21T01:26:22.868Z,1023.53
2018-05-21T01:27:31.730Z,1023.53
2018-05-21T01:28:41.045Z,1023.49
2018-05-21T01:29:49.906Z,1023.46
2018-05-21T01:30:58.767Z,1023.45
2018-05-21T01:32:07.627Z,1023.48
2018-05-21T01:33:16.765Z,1023.44
2018-05-21T01:34:25.829Z,1023.43
2018-05-21T01:35:34.689Z,1023.45
2018-05-21T01:36:43.550Z,1023.44
2018-05-21T01:37:52.410Z,1023.44
2018-05-21T01:39:01.276Z,1023.4
2018-05-21T01:40:10.764Z,1023.39
2018-05-21T01:41:19.628Z,1023.39
2018-05-21T01:42:28.486Z,1023.42
2018-05-21T01:43:37.347Z,1023.37
2018-05-21T01:44:46.208Z,1023.39
2018-05-21T01:45:55.123Z,1023.4
2018-05-21T01:47:04.259Z,1023.4
2018-05-21T01:48:13.124Z,1023.41
2018-05-21T01:49:21.987Z,1023.38
2018-05-21T01:50:31.127Z,1023.42
2018-05-21T01:51:40.036Z,1023.4
2018-05-21T01:52:48.896Z,1023.4
2018-05-21T01:53:58.031Z,1023.42
2018-05-21T01:55:06.893Z,1023.41
2018-05-21T01:56:15.753Z,1023.44
2018-05-21T01:57:24.615Z,1023.42
2018-05-21T01:58:33.475Z,1023.41
2018-05-21T01:59:42.613Z,1023.42
2018-05-21T02:00:51.471Z,1023.44
2018-05-21T02:02:00.330Z,1023.43
2018-05-21T02:03:09.858Z,1023.37
2018-05-21T02:04:18.721Z,1023.44
2018-05-21T02:05:28.138Z,1023.36
2018-05-21T02:06:36.997Z,1023.35
2018-05-21T02:07:45.859Z,1023.3
2018-05-21T02:08:55.068Z,1023.26
2018-05-21T02:10:04.207Z,1023.31
2018-05-21T02:11:13.068Z,1023.29
2018-05-21T02:12:21.926Z,1023.31
2018-05-21T02:13:30.785Z,1023.27
2018-05-21T02:14:39.977Z,1023.27
2018-05-21T02:15:48.837Z,1023.29
2018-05-21T02:16:57.702Z,1023.24
2018-05-21T02:18:06.565Z,1023.26
2018-05-21T02:19:15.424Z,1023.24
2018-05-21T02:20:24.636Z,1023.23
2018-05-21T02:21:33.495Z,1023.22
2018-05-21T02:22:42.637Z,1023.19
2018-05-21T02:23:52.060Z,1023.18
2018-05-21T02:25:01.204Z,1023.16
2018-05-21T02:26:10.766Z,1023.12
2018-05-21T02:27:19.625Z,1023.16
2018-05-21T02:28:28.486Z,1023.18
2018-05-21T02:29:37.348Z,1023.14
2018-05-21T02:30:46.213Z,1023.11
2018-05-21T02:31:55.550Z,1023.11
2018-05-21T02:33:04.416Z,1023.13
2018-05-21T02:34:13.281Z,1023.14
2018-05-21T02:35:22.725Z,1023.11
2018-05-21T02:36:32.147Z,1023.13
2018-05-21T02:37:41.946Z,1023.13
2018-05-21T02:38:51.097Z,1023.11
2018-05-21T02:40:00.813Z,1023.13
2018-05-21T02:41:09.676Z,1023.14
2018-05-21T02:42:19.096Z,1023.12
2018-05-21T02:43:28.338Z,1023.11
2018-05-21T02:44:37.204Z,1023.11
2018-05-21T02:45:46.345Z,1023.08
2018-05-21T02:46:55.479Z,1023.08
2018-05-21T02:48:04.351Z,1023.06
2018-05-21T02:49:13.634Z,1023.09
2018-05-21T02:50:22.776Z,1023.07
2018-05-21T02:51:31.632Z,1023.05
2018-05-21T02:52:40.495Z,1023.06
2018-05-21T02:53:49.635Z,1023.06
2018-05-21T02:54:59.154Z,1022.98
2018-05-21T02:56:08.291Z,1023.02
2018-05-21T02:57:17.151Z,1022.98
2018-05-21T02:58:26.295Z,1022.95
2018-05-21T02:59:35.156Z,1022.93
2018-05-21T03:00:44.350Z,1022.9
2018-05-21T03:01:53.203Z,1022.93
2018-05-21T03:03:02.061Z,1022.91
2018-05-21T03:04:11.199Z,1022.91
2018-05-21T03:05:20.336Z,1022.93
2018-05-21T03:06:29.246Z,1022.92
2018-05-21T03:07:38.103Z,1022.88
2018-05-21T03:08:47.248Z,1022.92
2018-05-21T03:09:56.108Z,1022.91
2018-05-21T03:11:04.971Z,1022.88
2018-05-21T03:12:13.980Z,1022.92
2018-05-21T03:13:22.843Z,1022.87
2018-05-21T03:14:31.701Z,1022.92
2018-05-21T03:15:40.834Z,1022.86
2018-05-21T03:16:49.973Z,1022.86
2018-05-21T03:17:58.830Z,1022.88
2018-05-21T03:19:07.690Z,1022.85
2018-05-21T03:20:16.547Z,1022.87
2018-05-21T03:21:25.405Z,1022.89
2018-05-21T03:22:34.267Z,1022.84
2018-05-21T03:23:43.127Z,1022.89
2018-05-21T03:24:51.986Z,1022.89
2018-05-21T03:26:00.845Z,1022.89
2018-05-21T03:27:09.708Z,1022.85
2018-05-21T03:28:18.568Z,1022.9
2018-05-21T03:29:27.779Z,1022.88
2018-05-21T03:30:36.638Z,1022.91
2018-05-21T03:31:45.784Z,1022.93
2018-05-21T03:32:54.650Z,1022.9
2018-05-21T03:34:03.511Z,1022.91
2018-05-21T03:35:12.752Z,1022.91
2018-05-21T03:36:21.895Z,1022.96
2018-05-21T03:37:30.761Z,1022.92
2018-05-21T03:38:39.895Z,1022.91
2018-05-21T03:39:49.034Z,1022.91
2018-05-21T03:40:57.892Z,1022.91
2018-05-21T03:42:06.755Z,1022.94
2018-05-21T03:43:15.893Z,1022.89
2018-05-21T03:44:24.751Z,1022.94
2018-05-21T03:45:33.614Z,1022.91
2018-05-21T03:46:42.476Z,1022.89
2018-05-21T03:47:51.331Z,1022.91
2018-05-21T03:49:00.194Z,1022.89
2018-05-21T03:50:09.339Z,1022.91
2018-05-21T03:51:18.199Z,1022.92
2018-05-21T03:52:27.536Z,1022.88
2018-05-21T03:53:36.398Z,1022.92
2018-05-21T03:54:45.540Z,1022.94
2018-05-21T03:55:54.399Z,1022.91
2018-05-21T03:57:03.348Z,1022.93
2018-05-21T03:58:12.215Z,1022.94
2018-05-21T03:59:21.076Z,1022.93
2018-05-21T04:00:29.938Z,1022.95
2018-05-21T04:01:38.794Z,1022.99
2018-05-21T04:02:47.657Z,1022.97
2018-05-21T04:03:56.617Z,1023.02
2018-05-21T04:05:05.477Z,1023.01
2018-05-21T04:06:14.341Z,1022.98
2018-05-21T04:07:23.480Z,1023.04
2018-05-21T04:08:32.616Z,1022.97
2018-05-21T04:09:41.528Z,1023.03
2018-05-21T04:10:50.388Z,1023.01
2018-05-21T04:11:59.278Z,1023.01
2018-05-21T04:13:08.668Z,1023.01
2018-05-21T04:14:17.528Z,1023
2018-05-21T04:15:26.666Z,1023.02
2018-05-21T04:16:35.524Z,1022.98
2018-05-21T04:17:44.383Z,1023
2018-05-21T04:18:53.451Z,1023
2018-05-21T04:20:02.104Z,1023
2018-05-21T04:21:11.062Z,1023
2018-05-21T04:22:20.480Z,1023.01
2018-05-21T04:23:29.341Z,1023.01
2018-05-21T04:24:38.200Z,1022.98
2018-05-21T04:25:47.339Z,1023.03
2018-05-21T04:26:56.346Z,1022.97
2018-05-21T04:28:05.208Z,1022.96
2018-05-21T04:29:14.067Z,1022.97
2018-05-21T04:30:22.928Z,1022.99
2018-05-21T04:31:31.790Z,1022.97
2018-05-21T04:32:40.699Z,1022.96
2018-05-21T04:33:49.560Z,1022.93
2018-05-21T04:34:58.696Z,1022.96
2018-05-21T04:36:08.109Z,1022.95
2018-05-21T04:37:16.970Z,1022.95
2018-05-21T04:38:26.080Z,1022.95
2018-05-21T04:39:35.226Z,1022.94
2018-05-21T04:40:44.135Z,1022.91
2018-05-21T04:41:52.996Z,1022.93
2018-05-21T04:43:02.136Z,1022.9
2018-05-21T04:44:11.046Z,1022.93
2018-05-21T04:45:19.905Z,1022.9
2018-05-21T04:46:28.766Z,1022.92
2018-05-21T04:47:37.906Z,1022.91
2018-05-21T04:48:46.768Z,1022.89
2018-05-21T04:49:55.974Z,1022.86
2018-05-21T04:51:05.115Z,1022.9
2018-05-21T04:52:14.251Z,1022.87
2018-05-21T04:53:23.663Z,1022.91
2018-05-21T04:54:32.802Z,1022.89
2018-05-21T04:55:41.665Z,1022.87
2018-05-21T04:56:50.525Z,1022.91
2018-05-21T04:57:59.388Z,1022.84
2018-05-21T04:59:08.247Z,1022.85
2018-05-21T05:00:17.105Z,1022.83
2018-05-21T05:01:26.343Z,1022.83
2018-05-21T05:02:35.204Z,1022.88
2018-05-21T05:03:44.070Z,1022.85
2018-05-21T05:04:52.931Z,1022.84
2018-05-21T05:06:01.793Z,1022.83
2018-05-21T05:07:11.174Z,1022.8
2018-05-21T05:08:19.947Z,1022.81
2018-05-21T05:09:28.808Z,1022.79
2018-05-21T05:10:37.668Z,1022.76
2018-05-21T05:11:46.529Z,1022.77
2018-05-21T05:12:55.441Z,1022.78
2018-05-21T05:14:04.300Z,1022.75
2018-05-21T05:15:13.159Z,1022.72
2018-05-21T05:16:22.020Z,1022.76
2018-05-21T05:17:30.882Z,1022.73
2018-05-21T05:18:39.993Z,1022.75
2018-05-21T05:19:48.855Z,1022.75
2018-05-21T05:20:57.753Z,1022.78
2018-05-21T05:22:07.180Z,1022.74
2018-05-21T05:23:16.045Z,1022.75
2018-05-21T05:24:25.004Z,1022.77
2018-05-21T05:25:33.866Z,1022.75
2018-05-21T05:26:42.739Z,1022.71
2018-05-21T05:27:51.587Z,1022.78
2018-05-21T05:29:00.446Z,1022.76
2018-05-21T05:30:09.408Z,1022.75
2018-05-21T05:31:18.274Z,1022.77
2018-05-21T05:32:27.127Z,1022.77
2018-05-21T05:33:35.990Z,1022.8
2018-05-21T05:34:45.131Z,1022.79
2018-05-21T05:35:54.390Z,1022.76
2018-05-21T05:37:03.229Z,1022.74
2018-05-21T05:38:12.089Z,1022.7
2018-05-21T05:39:20.951Z,1022.66
2018-05-21T05:40:29.810Z,1022.67
2018-05-21T05:41:38.821Z,1022.68
2018-05-21T05:42:47.686Z,1022.66
2018-05-21T05:43:56.548Z,1022.69
2018-05-21T05:45:05.689Z,1022.66
2018-05-21T05:46:14.550Z,1022.62
2018-05-21T05:47:23.558Z,1022.66
2018-05-21T05:48:32.418Z,1022.64
2018-05-21T05:49:41.561Z,1022.63
2018-05-21T05:50:50.423Z,1022.64
2018-05-21T05:51:59.563Z,1022.61
2018-05-21T05:53:08.423Z,1022.62
2018-05-21T05:54:17.282Z,1022.65
2018-05-21T05:55:26.143Z,1022.66
2018-05-21T05:56:35.283Z,1022.68
2018-05-21T05:57:44.146Z,1022.68
2018-05-21T05:58:53.006Z,1022.65
2018-05-21T06:00:01.867Z,1022.72
2018-05-21T06:01:10.729Z,1022.7
2018-05-21T06:02:19.590Z,1022.73
2018-05-21T06:03:28.472Z,1022.69
2018-05-21T06:04:37.778Z,1022.73
2018-05-21T06:05:46.640Z,1022.77
2018-05-21T06:06:55.777Z,1022.73
2018-05-21T06:08:04.639Z,1022.69
2018-05-21T06:09:13.501Z,1022.69
2018-05-21T06:10:22.362Z,1022.72
2018-05-21T06:11:31.507Z,1022.68
2018-05-21T06:12:40.649Z,1022.76
2018-05-21T06:13:49.927Z,1022.71
2018-05-21T06:14:58.932Z,1022.74
2018-05-21T06:16:07.945Z,1022.68
2018-05-21T06:17:16.807Z,1022.74
2018-05-21T06:18:25.673Z,1022.68
2018-05-21T06:19:34.811Z,1022.66
2018-05-21T06:20:43.675Z,1022.62
2018-05-21T06:21:52.687Z,1022.63
2018-05-21T06:23:01.554Z,1022.69
2018-05-21T06:24:10.412Z,1022.66
2018-05-21T06:25:19.274Z,1022.61
2018-05-21T06:26:28.689Z,1022.59
2018-05-21T06:27:37.804Z,1022.59
2018-05-21T06:28:46.662Z,1022.55
2018-05-21T06:29:55.525Z,1022.56
2018-05-21T06:31:04.946Z,1022.61
2018-05-21T06:32:13.807Z,1022.55
2018-05-21T06:33:22.944Z,1022.56
2018-05-21T06:34:32.133Z,1022.58
2018-05-21T06:35:41.410Z,1022.6
2018-05-21T06:36:50.555Z,1022.56
2018-05-21T06:37:59.417Z,1022.56
2018-05-21T06:39:08.282Z,1022.55
2018-05-21T06:40:17.144Z,1022.61
2018-05-21T06:41:26.007Z,1022.58
2018-05-21T06:42:34.871Z,1022.55
2018-05-21T06:43:44.010Z,1022.59
2018-05-21T06:44:53.506Z,1022.59
2018-05-21T06:46:02.369Z,1022.59
2018-05-21T06:47:11.520Z,1022.56
2018-05-21T06:48:20.662Z,1022.5
2018-05-21T06:49:29.525Z,1022.57
2018-05-21T06:50:38.788Z,1022.59
2018-05-21T06:51:47.655Z,1022.61
2018-05-21T06:52:56.795Z,1022.57
2018-05-21T06:54:05.660Z,1022.58
2018-05-21T06:55:14.521Z,1022.53
2018-05-21T06:56:23.543Z,1022.54
2018-05-21T06:57:32.400Z,1022.53
2018-05-21T06:58:41.265Z,1022.59
2018-05-21T06:59:50.562Z,1022.51
2018-05-21T07:00:59.721Z,1022.54
2018-05-21T07:02:08.598Z,1022.52
2018-05-21T07:03:17.455Z,1022.54
2018-05-21T07:04:26.595Z,1022.55
2018-05-21T07:05:35.458Z,1022.52
2018-05-21T07:06:44.323Z,1022.52
2018-05-21T07:07:53.630Z,1022.54
2018-05-21T07:09:03.004Z,1022.53
2018-05-21T07:10:12.136Z,1022.49
2018-05-21T07:11:20.999Z,1022.59
2018-05-21T07:12:29.863Z,1022.56
2018-05-21T07:13:39.181Z,1022.57
2018-05-21T07:14:48.044Z,1022.56
2018-05-21T07:15:56.905Z,1022.6
2018-05-21T07:17:05.770Z,1022.55
2018-05-21T07:18:14.937Z,1022.55
2018-05-21T07:19:24.078Z,1022.56
2018-05-21T07:20:32.940Z,1022.57
2018-05-21T07:21:41.806Z,1022.54
2018-05-21T07:22:50.947Z,1022.53
2018-05-21T07:23:59.813Z,1022.59
2018-05-21T07:25:08.775Z,1022.52
2018-05-21T07:26:17.641Z,1022.5
2018-05-21T07:27:26.791Z,1022.47
2018-05-21T07:28:35.930Z,1022.5
2018-05-21T07:29:44.794Z,1022.5
2018-05-21T07:30:53.709Z,1022.47
2018-05-21T07:32:02.574Z,1022.47
2018-05-21T07:33:11.437Z,1022.43
2018-05-21T07:34:20.303Z,1022.41
2018-05-21T07:35:29.169Z,1022.41
2018-05-21T07:36:38.188Z,1022.4
2018-05-21T07:37:47.046Z,1022.42
2018-05-21T07:38:56.200Z,1022.39
2018-05-21T07:40:05.110Z,1022.28
2018-05-21T07:41:13.972Z,1022.33
2018-05-21T07:42:22.841Z,1022.22
2018-05-21T07:43:31.711Z,1022.29
2018-05-21T07:44:40.671Z,1022.27
2018-05-21T07:45:49.857Z,1022.28
2018-05-21T07:46:59.001Z,1022.29
2018-05-21T07:48:08.520Z,1022.2
2018-05-21T07:49:17.387Z,1022.23
2018-05-21T07:50:26.250Z,1022.21
2018-05-21T07:51:35.180Z,1022.19
2018-05-21T07:52:43.980Z,1022.21
2018-05-21T07:53:53.127Z,1022.15
2018-05-21T07:55:01.990Z,1022.15
2018-05-21T07:56:10.854Z,1022.15
2018-05-21T07:57:19.720Z,1022.2
2018-05-21T07:58:28.579Z,1022.17
2018-05-21T07:59:37.547Z,1022.17
2018-05-21T08:00:46.405Z,1022.06
2018-05-21T08:01:55.266Z,1022.13
2018-05-21T08:03:04.130Z,1022.08
2018-05-21T08:04:12.992Z,1022
2018-05-21T08:05:22.017Z,1022
2018-05-21T08:06:30.870Z,1021.99
2018-05-21T08:07:39.731Z,1021.96
2018-05-21T08:08:48.598Z,1021.95
2018-05-21T08:09:57.460Z,1021.99
2018-05-21T08:11:06.480Z,1021.94
2018-05-21T08:12:15.341Z,1021.87
2018-05-21T08:13:24.205Z,1021.91
2018-05-21T08:14:33.452Z,1021.88
2018-05-21T08:15:42.651Z,1021.86
2018-05-21T08:16:51.513Z,1021.87
2018-05-21T08:18:00.379Z,1021.84
2018-05-21T08:19:09.242Z,1021.85
2018-05-21T08:20:18.383Z,1021.86
2018-05-21T08:21:27.523Z,1021.87
2018-05-21T08:22:36.390Z,1021.84
2018-05-21T08:23:45.256Z,1021.83
2018-05-21T08:24:55.158Z,1021.81
2018-05-21T08:26:02.980Z,1021.74
2018-05-21T08:27:12.145Z,1021.78
2018-05-21T08:28:20.985Z,1021.8
2018-05-21T08:29:29.848Z,1021.81
2018-05-21T08:30:38.991Z,1021.75
2018-05-21T08:31:47.858Z,1021.81
2018-05-21T08:32:56.722Z,1021.78
2018-05-21T08:34:05.736Z,1021.83
2018-05-21T08:35:14.601Z,1021.76
2018-05-21T08:36:23.465Z,1021.73
2018-05-21T08:37:32.610Z,1021.72
2018-05-21T08:38:41.750Z,1021.69
2018-05-21T08:39:50.813Z,1021.6
2018-05-21T08:40:59.672Z,1021.72
2018-05-21T08:42:08.540Z,1021.67
2018-05-21T08:43:17.691Z,1021.74
2018-05-21T08:44:26.549Z,1021.67
2018-05-21T08:45:35.515Z,1021.64
2018-05-21T08:46:44.385Z,1021.69
2018-05-21T08:47:53.244Z,1021.73
2018-05-21T08:49:02.673Z,1021.75
2018-05-21T08:50:11.537Z,1021.72
2018-05-21T08:51:20.686Z,1021.79
2018-05-21T08:52:29.551Z,1021.63
2018-05-21T08:53:38.417Z,1021.62
2018-05-21T08:54:47.283Z,1021.65
2018-05-21T08:55:56.151Z,1021.61
2018-05-21T08:57:05.172Z,1021.6
2018-05-21T08:58:14.592Z,1021.59
2018-05-21T08:59:23.455Z,1021.53
2018-05-21T09:00:32.414Z,1021.53
2018-05-21T09:01:41.182Z,1021.53
2018-05-21T09:02:50.050Z,1021.55
2018-05-21T09:03:58.916Z,1021.57
2018-05-21T09:05:07.782Z,1021.51
2018-05-21T09:06:16.645Z,1021.5
2018-05-21T09:07:25.510Z,1021.48
2018-05-21T09:08:34.824Z,1021.43
2018-05-21T09:09:43.692Z,1021.41
2018-05-21T09:10:52.552Z,1021.41
2018-05-21T09:12:01.417Z,1021.37
2018-05-21T09:13:10.280Z,1021.35
2018-05-21T09:14:19.145Z,1021.34
2018-05-21T09:15:28.284Z,1021.33
2018-05-21T09:16:37.160Z,1021.37
2018-05-21T09:17:46.391Z,1021.35
2018-05-21T09:18:55.259Z,1021.34
2018-05-21T09:20:04.378Z,1021.33
2018-05-21T09:21:13.800Z,1021.29
2018-05-21T09:22:22.664Z,1021.32
2018-05-21T09:23:31.883Z,1021.3
2018-05-21T09:24:41.027Z,1021.27
2018-05-21T09:25:49.992Z,1021.25
2018-05-21T09:26:58.863Z,1021.25
2018-05-21T09:28:07.726Z,1021.2
2018-05-21T09:29:16.875Z,1021.18
2018-05-21T09:30:25.733Z,1021.18
2018-05-21T09:31:34.657Z,1021.19
2018-05-21T09:32:43.521Z,1021.29
2018-05-21T09:33:52.387Z,1021.16
2018-05-21T09:35:01.255Z,1021.11
2018-05-21T09:36:10.121Z,1021.21
2018-05-21T09:37:19.274Z,1021.14
2018-05-21T09:38:28.140Z,1021.11
2018-05-21T09:39:37.279Z,1021.09
2018-05-21T09:40:46.708Z,1021.02
2018-05-21T09:41:55.880Z,1020.97
2018-05-21T09:43:05.176Z,1020.95
2018-05-21T09:44:14.039Z,1020.96
2018-05-21T09:45:22.910Z,1020.93
2018-05-21T09:46:31.777Z,1020.95
2018-05-21T09:47:40.930Z,1020.94
2018-05-21T09:48:49.947Z,1020.91
2018-05-21T09:49:58.813Z,1020.87
2018-05-21T09:51:07.678Z,1020.9
2018-05-21T09:52:16.544Z,1020.92
2018-05-21T09:53:25.407Z,1020.91
2018-05-21T09:54:34.624Z,1020.86
2018-05-21T09:55:43.769Z,1020.87
2018-05-21T09:56:52.634Z,1020.83
2018-05-21T09:58:01.502Z,1020.79
2018-05-21T09:59:10.369Z,1020.72
2018-05-21T10:00:19.236Z,1020.77
2018-05-21T10:01:28.102Z,1020.74
2018-05-21T10:02:36.969Z,1020.75
2018-05-21T10:03:45.836Z,1020.76
2018-05-21T10:04:54.707Z,1020.71
2018-05-21T10:06:03.574Z,1020.67
2018-05-21T10:07:12.438Z,1020.63
2018-05-21T10:08:21.589Z,1020.58
2018-05-21T10:09:30.453Z,1020.59
2018-05-21T10:10:39.318Z,1020.63
2018-05-21T10:11:48.185Z,1020.75
2018-05-21T10:12:57.051Z,1020.6
2018-05-21T10:14:05.918Z,1020.64
2018-05-21T10:15:15.064Z,1020.67
2018-05-21T10:16:24.213Z,1020.67
2018-05-21T10:17:33.228Z,1020.62
2018-05-21T10:18:42.376Z,1020.58
2018-05-21T10:19:51.595Z,1020.57
2018-05-21T10:21:00.391Z,1020.57
2018-05-21T10:22:09.264Z,1020.5
2018-05-21T10:23:18.505Z,1020.55
2018-05-21T10:24:27.382Z,1020.49
2018-05-21T10:25:36.239Z,1020.46
2018-05-21T10:26:45.103Z,1020.43
2018-05-21T10:27:53.968Z,1020.38
2018-05-21T10:29:02.935Z,1020.44
2018-05-21T10:30:11.802Z,1020.36
2018-05-21T10:31:20.670Z,1020.38
2018-05-21T10:32:29.557Z,1020.38
2018-05-21T10:33:38.678Z,1020.35
2018-05-21T10:34:47.592Z,1020.37
2018-05-21T10:35:56.736Z,1020.37
2018-05-21T10:37:05.680Z,1020.36
2018-05-21T10:38:14.837Z,1020.37
2018-05-21T10:39:23.980Z,1020.27
2018-05-21T10:40:32.848Z,1020.3
2018-05-21T10:41:41.714Z,1020.34
2018-05-21T10:42:50.579Z,1020.25
2018-05-21T10:43:59.445Z,1020.29
2018-05-21T10:45:08.316Z,1020.29
2018-05-21T10:46:17.532Z,1020.23
2018-05-21T10:47:26.684Z,1020.33
2018-05-21T10:48:35.549Z,1020.22
2018-05-21T10:49:44.417Z,1020.21
2018-05-21T10:50:53.285Z,1020.18
2018-05-21T10:52:02.204Z,1020.17
2018-05-21T10:53:11.346Z,1020.15
2018-05-21T10:54:20.213Z,1020.09
2018-05-21T10:55:29.076Z,1020.17
2018-05-21T10:56:38.219Z,1020.24
2018-05-21T10:57:47.191Z,1020.17
2018-05-21T10:58:56.328Z,1020.16
2018-05-21T11:00:05.192Z,1020.16
2018-05-21T11:01:14.063Z,1020.12
2018-05-21T11:02:22.926Z,1020.16
2018-05-21T11:03:32.224Z,1020.21
2018-05-21T11:04:41.150Z,1020.13
2018-05-21T11:05:50.246Z,1020.1
2018-05-21T11:06:59.113Z,1020.1
2018-05-21T11:08:07.975Z,1020.07
2018-05-21T11:09:16.842Z,1020.04
2018-05-21T11:10:25.988Z,1020.03
2018-05-21T11:11:34.855Z,1020.04
2018-05-21T11:12:44.003Z,1020.08
2018-05-21T11:13:52.867Z,1020.03
2018-05-21T11:15:02.059Z,1019.96
2018-05-21T11:16:11.205Z,1019.89
2018-05-21T11:17:20.348Z,1019.94
2018-05-21T11:18:29.491Z,1019.82
2018-05-21T11:19:38.641Z,1019.86
2018-05-21T11:20:47.658Z,1019.86
2018-05-21T11:21:56.799Z,1019.76
2018-05-21T11:23:05.665Z,1019.78
2018-05-21T11:24:14.811Z,1019.78
2018-05-21T11:25:23.680Z,1019.79
2018-05-21T11:26:32.872Z,1019.74
2018-05-21T11:27:41.738Z,1019.7
2018-05-21T11:28:50.604Z,1019.78
2018-05-21T11:29:59.749Z,1019.74
2018-05-21T11:31:08.617Z,1019.7
2018-05-21T11:32:17.585Z,1019.74
2018-05-21T11:33:26.448Z,1019.66
2018-05-21T11:34:35.316Z,1019.72
2018-05-21T11:35:44.187Z,1019.74
2018-05-21T11:36:53.052Z,1019.63
2018-05-21T11:38:01.968Z,1019.65
2018-05-21T11:39:10.832Z,1019.63
2018-05-21T11:40:19.698Z,1019.63
2018-05-21T11:41:28.844Z,1019.64
2018-05-21T11:42:37.708Z,1019.66
2018-05-21T11:43:47.106Z,1019.55
2018-05-21T11:44:56.251Z,1019.55
2018-05-21T11:46:05.118Z,1019.55
2018-05-21T11:47:13.984Z,1019.52
2018-05-21T11:48:23.411Z,1019.53
2018-05-21T11:49:32.429Z,1019.49
2018-05-21T11:50:41.380Z,1019.43
2018-05-21T11:51:50.900Z,1019.52
2018-05-21T11:52:59.767Z,1019.44
2018-05-21T11:54:08.636Z,1019.43
2018-05-21T11:55:17.505Z,1019.42
2018-05-21T11:56:26.374Z,1019.36
2018-05-21T11:57:35.243Z,1019.35
2018-05-21T11:58:44.387Z,1019.32
2018-05-21T11:59:53.257Z,1019.28
2018-05-21T12:01:02.179Z,1019.37
2018-05-21T12:02:11.050Z,1019.24
2018-05-21T12:03:20.481Z,1019.32
2018-05-21T12:04:29.631Z,1019.34
2018-05-21T12:05:38.781Z,1019.35
2018-05-21T12:06:47.806Z,1019.33
2018-05-21T12:07:56.674Z,1019.43
2018-05-21T12:09:05.547Z,1019.35
2018-05-21T12:10:14.421Z,1019.32
2018-05-21T12:11:23.291Z,1019.31
2018-05-21T12:12:32.263Z,1019.27
2018-05-21T12:13:41.698Z,1019.26
2018-05-21T12:14:50.570Z,1019.26
2018-05-21T12:15:59.440Z,1019.27
2018-05-21T12:17:08.314Z,1019.24
2018-05-21T12:18:17.290Z,1019.2
2018-05-21T12:19:26.164Z,1019.21
2018-05-21T12:20:35.036Z,1019.18
2018-05-21T12:21:43.909Z,1019.24
2018-05-21T12:22:53.062Z,1019.19
2018-05-21T12:24:02.137Z,1019.21
2018-05-21T12:25:11.288Z,1019.22
2018-05-21T12:26:20.165Z,1019.28
2018-05-21T12:27:29.038Z,1019.18
2018-05-21T12:28:37.994Z,1019.17
2018-05-21T12:29:47.584Z,1019.1
2018-05-21T12:30:56.459Z,1019.07
2018-05-21T12:32:05.336Z,1019.13
2018-05-21T12:33:14.209Z,1019.11
2018-05-21T12:34:23.087Z,1019.15
2018-05-21T12:35:31.962Z,1019.1
2018-05-21T12:36:40.835Z,1019.1
2018-05-21T12:37:49.711Z,1019.13
2018-05-21T12:38:58.592Z,1019.01
2018-05-21T12:40:07.464Z,1019.03
2018-05-21T12:41:16.342Z,1019.02
2018-05-21T12:42:25.217Z,1018.96
2018-05-21T12:43:34.370Z,1019.02
2018-05-21T12:44:43.250Z,1019.05
2018-05-21T12:45:52.127Z,1018.97
2018-05-21T12:47:01.334Z,1018.94
2018-05-21T12:48:10.221Z,1018.92
2018-05-21T12:49:19.096Z,1018.89
2018-05-21T12:50:27.975Z,1018.89
2018-05-21T12:51:36.854Z,1018.9
2018-05-21T12:52:46.165Z,1018.92
2018-05-21T12:53:55.043Z,1018.93
2018-05-21T12:55:03.924Z,1018.86
2018-05-21T12:56:12.810Z,1018.81
2018-05-21T12:57:21.690Z,1018.78
2018-05-21T12:58:30.915Z,1018.82
2018-05-21T12:59:39.791Z,1018.81
2018-05-21T13:00:48.959Z,1018.84
2018-05-21T13:01:57.833Z,1018.8
2018-05-21T13:03:06.713Z,1018.83
2018-05-21T13:04:15.596Z,1018.83
2018-05-21T13:05:24.481Z,1018.82
2018-05-21T13:06:33.355Z,1018.89
2018-05-21T13:07:42.235Z,1018.79
2018-05-21T13:08:51.112Z,1018.8
2018-05-21T13:09:59.990Z,1018.75
2018-05-21T13:11:08.870Z,1018.65
2018-05-21T13:12:17.750Z,1018.59
2018-05-21T13:13:26.631Z,1018.63
2018-05-21T13:14:35.515Z,1018.68
2018-05-21T13:15:44.744Z,1018.72
2018-05-21T13:16:53.909Z,1018.63
2018-05-21T13:18:02.786Z,1018.63
2018-05-21T13:19:12.231Z,1018.62
2018-05-21T13:20:21.110Z,1018.61
2018-05-21T13:21:29.990Z,1018.65
2018-05-21T13:22:38.877Z,1018.59
2018-05-21T13:23:48.042Z,1018.61
2018-05-21T13:24:56.925Z,1018.55
2018-05-21T13:26:06.091Z,1018.6
2018-05-21T13:27:15.121Z,1018.58
2018-05-21T13:28:24.281Z,1018.59
2018-05-21T13:29:33.160Z,1018.55
2018-05-21T13:30:42.313Z,1018.57
2018-05-21T13:31:51.195Z,1018.52
2018-05-21T13:33:00.503Z,1018.49
2018-05-21T13:34:09.386Z,1018.5
2018-05-21T13:35:18.268Z,1018.44
2018-05-21T13:36:27.150Z,1018.49
2018-05-21T13:37:36.312Z,1018.49
2018-05-21T13:38:45.820Z,1018.45
2018-05-21T13:39:54.976Z,1018.49
2018-05-21T13:41:03.858Z,1018.52
2018-05-21T13:42:12.737Z,1018.52
2018-05-21T13:43:21.902Z,1018.51
2018-05-21T13:44:30.786Z,1018.46
2018-05-21T13:45:40.252Z,1018.49
2018-05-21T13:46:49.133Z,1018.51
2018-05-21T13:47:58.016Z,1018.59
2018-05-21T13:49:06.897Z,1018.58
2018-05-21T13:50:16.208Z,1018.57
2018-05-21T13:51:25.380Z,1018.54
2018-05-21T13:52:34.326Z,1018.57
2018-05-21T13:53:43.560Z,1018.49
2018-05-21T13:54:52.441Z,1018.47
2018-05-21T13:56:01.377Z,1018.53
2018-05-21T13:57:10.254Z,1018.49